気象予報士の航空気象 2015年11月

*All archives   *Admin

スポンサーサイト

上記の広告は1ヶ月以上更新のないブログに表示されています。
新しい記事を書く事で広告が消せます。
--:--  |  スポンサー広告  |  EDIT  |  Top↑

2015.11.27 (Fri)

空気の湿り具合が一変した一日

夕方から晴れてきた26日のよるは風が弱く、霧が発生しやすい条件が整っていました。

成田空港の夜中、かなり視程が落ちています。

RJAA 261600Z 17002KT 0900 R16R/0300V0400N R16L/0150V0200N FG FEW000 SCT001 07/06 Q1003 NOSIG RMK 1ST000 3ST001 A2963 5000S-SW

夜明け前もかなり厳しい状況。

RJAA 262021Z 26004KT 220V300 0600 R16R/0250V0550N R16L/0300N FG FEW000 SCT002 BKN004 06/06 Q1004 RMK 1ST000 4ST002 6ST004 A2967

日中は風も吹き始め、乾季が地上まで到達して、一気に乾いた空気になりました。

RJTT 270323Z 29013KT 9999 FEW020 15/M12 Q1006 RMK 1CU020 A2973

RJAA 270500Z 26011KT 230V300 9999 FEW030 14/M07 Q1007 NOSIG RMK 1CU030 A2976

冬場、このような乾いた空気が続くと、火災に注意しなければなりません。
スポンサーサイト
23:43  |  気象・天気  |  TB(0)  |  CM(0)  |  EDIT  |  Top↑

2015.11.26 (Thu)

さむい

RJTT 250300Z 02014KT 2800 -RA BR FEW008 SCT010 BKN020 09/07 Q1018 TEMPO FEW005 BKN008 RMK 1ST008 3CU010 6SC020 A3007

RJAA 250300Z 04010KT 360V070 9000 -RA FEW008 BKN030 BKN040 09/07 Q1017 TEMPO 4000 RA BR FEW005 BKN008 RMK 1ST008 5SC030 6SC040 A3005

25日の正午、羽田成田ともに雨で気温は9度。

いきなりさむくなった。

ラーメンが恋しい。


RJTT 260300Z 33009KT 9999 FEW010 BKN020 BKN050 11/08 Q1006 NOSIG RMK 1ST010 6SC020 7SC050 A2971

RJAA 260300Z 36010KT 6000 -RA BR FEW002 SCT003 BKN005 10/09 Q1004 BECMG FEW003 BKN008 RMK 1ST002 3ST003 5ST005 A2967

26日、今日の正午の気温は羽田11℃、成田10℃。

昨日より暖かいはずなのに、寒く感じる。

ぶるぶる。

23:18  |  気象・天気  |  TB(0)  |  CM(0)  |  EDIT  |  Top↑

2015.11.25 (Wed)

今日は非常に寒い日でした

北海道で大雪。

札幌市で積雪が40センチを超えたようです。

11月の積雪の記録としては、1953年以来62年ぶりだそうです。

いきなりのドカ雪で、さすがの道民も事故を起こしていたようです。

スキー場では、天の恵みでもあり、雨と同じく、いい点も悪い点もあるということでしょうか。
21:50  |  気象・天気  |  TB(0)  |  CM(0)  |  EDIT  |  Top↑

2015.11.24 (Tue)

だんだん寒く

近所の公園の木々が色づいてきました。

けれども、全国的に平均気温が高いそうです。
18:14  |  時事  |  TB(0)  |  CM(0)  |  EDIT  |  Top↑

2015.11.21 (Sat)

今年の台風の記録は50年ぶり

17日に、台風26号発生。

26号発生は2013年以来。

また、今年は1月から連続して毎月1個以上発生しているという珍しい年です。

なんと、これは1965年以来50年ぶり。
18:05  |  気象・天気  |  TB(0)  |  CM(0)  |  EDIT  |  Top↑

2015.11.19 (Thu)

今朝は霧、発生せず

RJAA 181800Z 01018KT 3200 SHRA BR FEW004 SCT007 BKN010 13/12 Q1011 TEMPO 01022G32KT 3000 SHRA BR FEW002 BKN005 RMK 1ST004 3ST007 6CU010 A2985

昨日から雨が降り続け、明け方にやんだようです。

RJAA 182000Z 36020KT 9999 -SHRA FEW007 SCT013 BKN020 12/10 Q1012 TEMPO 01024G35KT RMK 1ST007 4CU013 6CU020 A2990
RJAA 182030Z 02017KT 9999 FEW007 SCT015 BKN050 12/11 Q1013 NOSIG RMK 1ST007 4CU015 6SC050 A2992

昨日と違い、霧は発生せず。発生しない理由はおそらく3点。
・風が弱くない。5kt以下の凪の状態ではない。
・雨がやんだ後、スカッパレにならず、放射冷却起きず。
・明け方にやんだので、冷え込みが不十分。

18日の降雨は山茶花梅雨の雨によるもので、前線が通過後、雨がやんでも、強い風が吹かず、深夜にやんだこと、その後に晴れたこと、また、その前まで暖かい日が続き、地表や湖沼の水温が上がっていたことが要因でしょう。

19日の早朝はどれもあてはまりません。

霧は発生せず。
14:48  |  時事  |  TB(0)  |  CM(0)  |  EDIT  |  Top↑

2015.11.18 (Wed)

霧発生。

RJAA 170600Z 22004KT 9999 FEW020 SCT150 BKN180 22/15 Q1016 NOSIG RMK 1CU020 3AC150 6AC180 A3000

昨日は暖かい日でした。

RJAA 171030Z 19004KT 160V220 9999 -RA FEW020 SCT100 BKN120 19/17 Q1017 NOSIG RMK 1CU020 3AC100 7AS120 A3004

夜、雨が降りました。

RJAA 171200Z 19003KT 9999 -RA FEW015 SCT090 OVC120 19/17 Q1017 BECMG TL1300 27005KT TEMPO FM1300 4000 -RA BR RMK 1CU015 3AC090 8AS120 A3004

風向きが変わり始めます。

RJAA 171427Z 30003KT 270V330 2000 R34L/P1800N R34R/P1800N -RA BR FEW001 BKN003 OVC100 17/16 Q1018 RMK 2ST001 5ST003 8AS100 A3006

弱い北西成分の風、印旛沼の影響でもやとなる。

RJAA 172000Z 33003KT 1500 R34L/1800D R34R/0600VP1800D BCFG BR FEW001 SCT/// 15/14 Q1017 NOSIG RMK 2ST001 A3005 FG ON RWY34R AND RWY16R AND RWY16L

明け方、霧の発生。

RJAA 172100Z 26002KT 0100 R16R/0300N R16L/0300V0450U FG FEW000 BKN/// 14/14 Q1017 BECMG FM2230 6000 NSW RMK 2ST000 A3005
RJAA 172117Z 00000KT 0800 R16R/0300VP1800U R16L/0250N FG FEW000 BKN/// 14/14 Q1017 RMK 1ST000 A3005

凪、夜明け前の気温低下もあり、何も見えない。

RJAA 172200Z 36006KT 1200 R16R/0650VP1800U R16L/0300V0450N BCFG BR FEW000 BKN/// 14/14 Q1018 BECMG 6000 NSW

日の出、接地層に対流が生まれ、徐々に回復。

RJAA 180000Z 36006KT 4000 BR FEW030 BKN/// 16/15 Q1019 BECMG 6000 NSW RMK 1CU030 A3009

回復傾向。

RJAA 180200Z 04012KT 9999 FEW010 SCT018 BKN/// 19/16 Q1018 NOSIG

天候回復。


11:18  |  時事  |  TB(0)  |  CM(0)  |  EDIT  |  Top↑

2015.11.17 (Tue)

ここ数日は暖かい

長袖だと汗ばみます
16:43  |  時事  |  TB(0)  |  CM(0)  |  EDIT  |  Top↑

2015.11.11 (Wed)

色づいてきました

公園の木々が赤や黄色に色づいてきました。

もうすぐ冬。
12:02  |  時事  |  TB(0)  |  CM(0)  |  EDIT  |  Top↑

2015.11.03 (Tue)

寒くなってきた

お風呂の中が湯気で白くなる季節になりました。
22:31  |  時事  |  TB(0)  |  CM(0)  |  EDIT  |  Top↑
 | BLOGTOP | 
上記広告は1ヶ月以上更新のないブログに表示されています。新しい記事を書くことで広告を消せます。